This is the latest recevied weather packets stored in our database for station/object W7OWO-1. If no packets are shown the sender has not sent any weather packets the latest 10 day(s).
| Time | Temp. | Humidity | Pressure | Rain* | Wind** | Luminosity | Snow |
|---|---|---|---|---|---|---|---|
| 1777570563 | 18.33° C | 65% | 1018.1 hPa | 0 mm | - | - | - |
| 1777566423 | 15.56° C | 82% | 1018.7 hPa | 0 mm | - | - | - |
| 1777565883 | 15° C | 84% | 1018.7 hPa | 0 mm | - | - | - |
| 1777564803 | 14.44° C | 84% | 1018.8 hPa | 0 mm | - | - | - |
| 1777563903 | 13.89° C | 87% | 1018.9 hPa | 0 mm | - | - | - |
| 1777563363 | 13.33° C | 87% | 1018.9 hPa | 0 mm | - | - | - |
| 1777561743 | 11.67° C | 88% | 1019.1 hPa | 0 mm | - | - | - |
| 1777561203 | 11.67° C | 90% | 1019.1 hPa | 0 mm | - | - | - |
| 1777560303 | 11.11° C | 92% | 1019 hPa | 0 mm | - | - | - |
| 1777558143 | 8.33° C | 97% | 1018.7 hPa | 0 mm | - | - | - |
| 1777556703 | 7.78° C | 97% | 1018.8 hPa | 0 mm | - | - | - |
| 1777554543 | 7.22° C | 97% | 1018.7 hPa | 0 mm | - | - | - |
| 1777552023 | 7.78° C | 97% | 1018.6 hPa | 0 mm | - | - | - |
| 1777550943 | 7.78° C | 97% | 1018.7 hPa | 0 mm | - | - | - |
| 1777550403 | 7.78° C | 97% | 1018.6 hPa | 0 mm | - | - | - |
| 1777548423 | 8.33° C | 95% | 1018.7 hPa | 0 mm | - | - | - |
| 1777547883 | 8.33° C | 95% | 1018.7 hPa | 0 mm | - | - | - |
| 1777544823 | 10° C | 90% | 1018.7 hPa | 0 mm | - | - | - |
| 1777544283 | 10° C | 89% | 1018.7 hPa | 0 mm | - | - | - |
| 1777543743 | 10.56° C | 89% | 1018.6 hPa | 0 mm | - | - | - |
| 1777540683 | 10° C | 90% | 1018.8 hPa | 0 mm | - | - | - |
| 1777540143 | 10° C | 90% | 1018.9 hPa | 0 mm | - | - | - |
| 1777539243 | 10° C | 90% | 1018.9 hPa | 0 mm | - | - | - |
| 1777538703 | 10° C | 90% | 1018.9 hPa | 0 mm | - | - | - |
| 1777535103 | 10.56° C | 88% | 1019.1 hPa | 0 mm | - | - | - |
* Rain latest hour (hover to see other rain measurements)
** Current wind speed in m/s (hover to see current wind gust speed)